Chaseley, ND (58423)

10:34 AM CST on December 20, 2014 (GMT -0600)
Harvey | Change Station
CLOSE
Current Station
Airport
Location: Harvey,
Elevation: 1608 ft
Nearby Weather Stations
Active Advisory: Dense Fog Advisory

Elev 1608 ft 47.79 °N, 99.93 °W | Updated 19 minutes ago

Fog
Fog
23 °F
Feels Like 15 °F
N
7
Wind Variable Wind from SE

Today
High -- | Low -- °F
--% Chance of Precip.
Yesterday
High -- | Low -- °F
Precip. -- in
8:23 AM 4:50 PM
Waning Crescent, 2% visible
Pressure 29.92 in
Visibility 0.2 miles
Clouds Overcast 100 ft
Windchill 15 °F
Dew Point 23 °F
Humidity 100%
Rainfall 0.00 in
Snow Depth Not available.
UV 0 out of 12
Pollen .10 out of 12
Air Quality Not available.
Flu Activity Not available.
METAR K5H4 201615Z AUTO 14006KT M1/4SM FZFG OVC001 M05/M05 A2992 RMK AO2

More Conditions Fewer Conditions

Pressure 29.92 in
Visibility 0.2 miles
Clouds Overcast 100 ft
Windchill 15 °F
Dew Point 23 °F
Humidity 100%
Rainfall 0.00 in
Snow Depth Not available.
UV 0 out of 12
Pollen .10 out of 12
Air Quality Not available.
Flu Activity Not available.
METAR K5H4 201615Z AUTO 14006KT M1/4SM FZFG OVC001 M05/M05 A2992 RMK AO2

More Conditions Fewer Conditions

10-Day Weather Forecast

Almanac

Astronomy

Dec. 20, 2014 Rise Set
Actual Time
Civil Twilight
Nautical Twilight
Astronomical Twilight
Moon
Length of Visible Light
Length of Day
Tomorrow will be .
, % of the Moon is Illuminated

Today's Extremes

State Highs State Lows

Community

WunderPhotos

Upload Photos

1,779,215 photos uploaded!

WunderBlogs® & News

Nearby

Air Quality

  Air Quality AQ Index Pollutant
Not available.

Snow Depth

Station Depth Elevation

Earthquake Activity

City Distance Mag. Time & Date
Minimum magnitude displayed is 2.5.

Coastal Water Temperatures

Place Temperature

Nearby Weather Stations